Time;durP1;ratioP1;P1;durP2;ratioP2;P2;SDS_P1;SDS_P2;PMS_P1;PMS_P2;Temp;Humidity;BMP_temperature;BMP_pressure;BME280_temperature;BME280_humidity;BME280_pressure;Samples;Min_cycle;Max_cycle;Signal;HPM_P1;HPM_P2
2021/06/10 05:02:01;;;;;;;6.00;3.47;;;;;;;-142.70;100.00;60390.16;5226375;23;20490;-77
2021/06/10 05:04:26;;;;;;;3.08;2.78;;;;;;;-142.70;100.00;60390.16;4868437;29;20136;-75
2021/06/10 05:06:52;;;;;;;3.25;2.95;;;;;;;-142.70;100.00;60390.16;4848394;29;20103;-76
2021/06/10 05:09:17;;;;;;;4.45;3.53;;;;;;;-142.70;100.00;60390.16;4859879;29;20036;-77
2021/06/10 05:11:43;;;;;;;4.70;3.20;;;;;;;-142.70;100.00;60390.16;4874635;29;20127;-78
2021/06/10 05:14:08;;;;;;;3.63;3.30;;;;;;;-142.70;100.00;60390.16;4854669;29;20037;-79
2021/06/10 05:16:34;;;;;;;6.78;3.17;;;;;;;-142.70;100.00;60390.16;4890883;29;20027;-73
2021/06/10 05:18:59;;;;;;;4.50;3.47;;;;;;;-142.70;100.00;60390.16;4855328;29;20068;-79
2021/06/10 05:21:25;;;;;;;2.90;2.70;;;;;;;-142.70;100.00;60390.16;4851620;29;20052;-80
2021/06/10 05:23:50;;;;;;;3.38;3.13;;;;;;;-142.70;100.00;60390.16;4889392;29;20041;-74
2021/06/10 05:26:16;;;;;;;3.05;2.75;;;;;;;-142.70;100.00;60390.16;4873546;29;20526;-74
2021/06/10 05:28:41;;;;;;;3.75;3.45;;;;;;;-142.70;100.00;60390.16;4891110;29;20067;-81
2021/06/10 05:31:07;;;;;;;3.92;3.38;;;;;;;-142.70;100.00;60390.16;4890366;29;20043;-76
2021/06/10 05:33:34;;;;;;;3.40;3.10;;;;;;;-142.70;100.00;60390.16;4859505;29;20025;-79
2021/06/10 05:35:59;;;;;;;3.80;3.50;;;;;;;-142.70;100.00;60390.16;4890136;29;20029;-76
2021/06/10 05:38:25;;;;;;;4.38;3.53;;;;;;;-142.70;100.00;60390.16;4887050;29;20375;-75
2021/06/10 05:40:50;;;;;;;3.72;3.42;;;;;;;-142.70;100.00;60390.16;4895305;29;20052;-79
2021/06/10 05:43:16;;;;;;;3.80;3.40;;;;;;;-142.70;100.00;60390.16;4861728;29;20037;-78
2021/06/10 05:45:41;;;;;;;4.72;2.90;;;;;;;-142.70;100.00;60390.16;4895192;29;20028;-80
2021/06/10 05:48:07;;;;;;;3.65;3.35;;;;;;;-142.70;100.00;60390.16;4876918;29;20031;-76
2021/06/10 05:50:33;;;;;;;8.85;3.25;;;;;;;-142.70;100.00;60390.16;4867215;29;20120;-73
2021/06/10 05:52:58;;;;;;;2.88;2.58;;;;;;;-142.70;100.00;60390.16;4884394;29;20510;-77
2021/06/10 05:55:24;;;;;;;5.25;3.30;;;;;;;-142.70;100.00;60390.16;4861906;29;20036;-75
2021/06/10 05:57:49;;;;;;;3.10;2.83;;;;;;;-142.70;100.00;60390.16;4875317;29;20170;-78
2021/06/10 06:00:17;;;;;;;3.50;3.20;;;;;;;-142.70;100.00;60390.16;4890271;29;20032;-74
2021/06/10 06:02:42;;;;;;;3.00;2.50;;;;;;;-142.70;100.00;60390.16;4854434;29;20080;-74
2021/06/10 06:05:09;;;;;;;3.13;2.88;;;;;;;-142.70;100.00;60390.16;4874155;29;20040;-76
2021/06/10 06:07:35;;;;;;;2.45;2.22;;;;;;;-142.70;100.00;60390.16;4860193;29;20032;-76
2021/06/10 06:10:04;;;;;;;2.83;2.45;;;;;;;-142.70;100.00;60390.16;4873680;29;20033;-78
2021/06/10 06:12:30;;;;;;;2.80;2.60;;;;;;;-142.70;100.00;60390.16;4857420;29;20092;-77
2021/06/10 06:14:56;;;;;;;5.82;2.70;;;;;;;-142.70;100.00;60390.16;4860328;29;20033;-73
2021/06/10 06:17:21;;;;;;;6.55;2.72;;;;;;;-142.70;100.00;60390.16;4859283;29;20053;-71
2021/06/10 06:19:47;;;;;;;3.65;2.55;;;;;;;-142.70;100.00;60390.16;4872472;29;20036;-75
2021/06/10 06:22:12;;;;;;;2.78;2.58;;;;;;;-142.70;100.00;60390.16;4874206;29;20036;-73
2021/06/10 06:24:45;;;;;;;2.80;2.22;;;;;;;-142.70;100.00;60390.16;4860779;29;20052;-74
2021/06/10 06:27:12;;;;;;;2.92;2.72;;;;;;;-142.70;100.00;60390.16;4859577;29;20040;-71
2021/06/10 06:29:40;;;;;;;4.00;2.80;;;;;;;-142.70;100.00;60390.16;4870587;29;20065;-73
2021/06/10 06:32:06;;;;;;;3.10;2.90;;;;;;;-142.70;100.00;60390.16;4870749;29;20521;-73
2021/06/10 06:34:31;;;;;;;3.22;2.92;;;;;;;-142.70;100.00;60390.16;4852239;29;20033;-70
2021/06/10 06:36:57;;;;;;;3.03;2.67;;;;;;;-142.70;100.00;60390.16;4861278;29;20037;-78
2021/06/10 06:39:22;;;;;;;2.75;2.47;;;;;;;-142.70;100.00;60390.16;4875049;29;20032;-75
2021/06/10 06:41:48;;;;;;;3.83;2.67;;;;;;;-142.70;100.00;60390.16;4876803;29;20036;-74
2021/06/10 06:44:13;;;;;;;2.53;2.33;;;;;;;-142.70;100.00;60390.16;4874411;29;20025;-70
2021/06/10 06:46:39;;;;;;;3.42;2.67;;;;;;;-142.70;100.00;60390.16;4892456;29;20028;-74
2021/06/10 06:49:04;;;;;;;3.00;2.40;;;;;;;-142.70;100.00;60390.16;4872704;29;20037;-74
2021/06/10 06:51:30;;;;;;;2.75;2.55;;;;;;;-142.70;100.00;60390.16;4868753;29;20041;-72
2021/06/10 06:53:56;;;;;;;2.97;2.75;;;;;;;-142.70;100.00;60390.16;4876015;29;20055;-73
2021/06/10 06:56:22;;;;;;;2.92;2.60;;;;;;;-142.70;100.00;60390.16;4872184;29;20033;-72
2021/06/10 06:58:49;;;;;;;2.47;2.28;;;;;;;-142.70;100.00;60390.16;4876838;29;20029;-73
2021/06/10 07:01:14;;;;;;;4.22;2.42;;;;;;;-142.70;100.00;60390.16;4887049;29;20053;-72
2021/06/10 07:03:39;;;;;;;3.05;2.85;;;;;;;-142.70;100.00;60390.16;4881045;29;20033;-70
2021/06/10 07:06:05;;;;;;;3.90;3.50;;;;;;;-142.70;100.00;60390.16;4881001;29;20557;-70
2021/06/10 07:08:31;;;;;;;2.78;2.42;;;;;;;-142.70;100.00;60390.16;4878883;29;20029;-72
2021/06/10 07:10:58;;;;;;;10.60;2.78;;;;;;;-142.70;100.00;60390.16;4872513;29;20037;-71
2021/06/10 07:13:24;;;;;;;2.67;2.00;;;;;;;-142.70;100.00;60390.16;4862601;29;20523;-72
2021/06/10 07:15:52;;;;;;;3.03;2.33;;;;;;;-142.70;100.00;60390.16;4857997;29;20032;-74
2021/06/10 07:18:17;;;;;;;2.53;2.25;;;;;;;-142.70;100.00;60390.16;4856084;29;20986;-73
2021/06/10 07:20:43;;;;;;;2.63;2.42;;;;;;;-142.70;100.00;60390.16;4855464;29;20033;-72
2021/06/10 07:23:08;;;;;;;2.72;2.53;;;;;;;-142.70;100.00;60390.16;4853844;29;20089;-74
2021/06/10 07:25:34;;;;;;;2.22;2.05;;;;;;;-142.70;100.00;60390.16;4858989;29;20085;-73
2021/06/10 07:28:02;;;;;;;2.40;2.25;;;;;;;-142.70;100.00;60390.16;4854287;29;20124;-71
2021/06/10 07:30:27;;;;;;;3.03;2.67;;;;;;;-142.70;100.00;60390.16;4862515;29;20042;-73
2021/06/10 07:32:53;;;;;;;6.10;2.95;;;;;;;-142.70;100.00;60390.16;4861598;29;20093;-72
2021/06/10 07:35:21;;;;;;;2.60;2.40;;;;;;;-142.70;100.00;60390.16;4866124;29;20037;-71
2021/06/10 07:37:55;;;;;;;2.90;2.70;;;;;;;-142.70;100.00;60390.16;4872311;29;20839;-70
2021/06/10 07:40:23;;;;;;;3.20;2.90;;;;;;;-142.70;100.00;60390.16;4854892;29;20029;-71
2021/06/10 07:42:49;;;;;;;2.92;2.70;;;;;;;-142.70;100.00;60390.16;4884459;29;20017;-70
2021/06/10 07:45:15;;;;;;;4.40;3.28;;;;;;;-142.70;100.00;60390.16;4871209;29;20045;-69
2021/06/10 07:47:40;;;;;;;2.95;2.67;;;;;;;-142.70;100.00;60390.16;4871188;29;20451;-70
2021/06/10 07:50:07;;;;;;;5.40;3.17;;;;;;;-142.70;100.00;60390.16;4887766;29;20029;-70
2021/06/10 07:52:32;;;;;;;8.82;3.67;;;;;;;-142.70;100.00;60390.16;4871926;29;20029;-72
2021/06/10 07:54:58;;;;;;;3.40;3.10;;;;;;;-142.70;100.00;60390.16;4853693;29;20037;-71
2021/06/10 07:57:23;;;;;;;3.35;3.08;;;;;;;-142.70;100.00;60390.16;4864951;29;20039;-71
2021/06/10 07:59:49;;;;;;;2.70;2.50;;;;;;;-142.70;100.00;60390.16;4872212;29;20093;-74
2021/06/10 08:02:14;;;;;;;2.30;2.10;;;;;;;-142.70;100.00;60390.16;4854436;29;20446;-72
2021/06/10 08:04:40;;;;;;;1.42;1.20;;;;;;;-142.70;100.00;60390.16;4872120;29;20028;-74
2021/06/10 08:07:05;;;;;;;1.70;1.60;;;;;;;-142.70;100.00;60390.16;4855280;29;20120;-74
2021/06/10 08:09:32;;;;;;;1.63;1.52;;;;;;;-142.70;100.00;60390.16;4875614;29;20495;-70
2021/06/10 08:12:15;;;;;;;1.60;1.50;;;;;;;-142.70;100.00;60390.16;4871607;29;20089;-72
2021/06/10 08:14:41;;;;;;;1.50;1.40;;;;;;;-142.70;100.00;60390.16;4870524;29;20029;-72
2021/06/10 08:17:06;;;;;;;1.75;1.65;;;;;;;-142.70;100.00;60390.16;4873093;29;20093;-71
2021/06/10 08:19:32;;;;;;;2.13;1.95;;;;;;;-142.70;100.00;60390.16;4840142;29;20096;-71
2021/06/10 08:21:57;;;;;;;1.85;1.73;;;;;;;-142.70;100.00;60390.16;4839984;29;20033;-71
2021/06/10 08:24:24;;;;;;;1.63;1.52;;;;;;;-142.70;100.00;60390.16;4871288;29;20380;-71
2021/06/10 08:26:50;;;;;;;3.03;1.73;;;;;;;-142.70;100.00;60390.16;4881634;29;20029;-71
2021/06/10 08:29:15;;;;;;;2.00;1.90;;;;;;;-142.70;100.00;60390.16;4870429;29;20066;-71
2021/06/10 08:31:41;;;;;;;1.95;1.85;;;;;;;-142.70;100.00;60390.16;4846512;29;20044;-71
2021/06/10 08:34:06;;;;;;;2.97;1.85;;;;;;;-142.70;100.00;60390.16;4873132;29;20104;-71
2021/06/10 08:36:34;;;;;;;1.73;1.50;;;;;;;-142.70;100.00;60390.16;4869506;29;20483;-70
2021/06/10 08:38:59;;;;;;;1.40;1.30;;;;;;;-142.70;100.00;60390.16;4862112;29;20121;-71
2021/06/10 08:41:26;;;;;;;2.05;1.85;;;;;;;-142.70;100.00;60390.16;4870959;29;20070;-71
2021/06/10 08:43:51;;;;;;;1.85;1.73;;;;;;;-142.70;100.00;60390.16;4871027;29;20044;-70
2021/06/10 08:46:17;;;;;;;3.83;2.15;;;;;;;-142.70;100.00;60390.16;4857413;29;20032;-71
2021/06/10 08:48:43;;;;;;;3.45;1.80;;;;;;;-142.70;100.00;60390.16;4845337;29;20025;-71
2021/06/10 08:51:09;;;;;;;4.35;2.17;;;;;;;-142.70;100.00;60390.16;4862756;29;20036;-71
2021/06/10 08:53:35;;;;;;;1.88;1.77;;;;;;;-142.70;100.00;60390.16;4850906;29;20029;-70
2021/06/10 08:56:01;;;;;;;1.88;1.48;;;;;;;-142.70;100.00;60390.16;4869498;29;20044;-70
2021/06/10 08:58:27;;;;;;;1.90;1.80;;;;;;;-142.70;100.00;60390.16;4870594;29;20025;-70
2021/06/10 09:00:53;;;;;;;2.05;1.85;;;;;;;-142.70;100.00;60390.16;4880942;29;20041;-72
2021/06/10 09:03:26;;;;;;;1.63;1.52;;;;;;;-142.70;100.00;60390.16;4855588;29;20108;-68
2021/06/10 09:06:17;;;;;;;1.80;1.70;;;;;;;-142.70;100.00;60390.16;4839031;29;20112;-72
2021/06/10 09:08:44;;;;;;;1.85;1.75;;;;;;;-142.70;100.00;60390.16;4852394;29;20033;-72
2021/06/10 09:11:18;;;;;;;2.03;1.92;;;;;;;-142.70;100.00;60390.16;4854091;29;20040;-68
2021/06/10 09:13:45;;;;;;;2.47;1.77;;;;;;;-142.70;100.00;60390.16;4874747;29;20111;-71
2021/06/10 09:16:17;;;;;;;2.10;1.63;;;;;;;-142.70;100.00;60390.16;4874676;29;20115;-73
2021/06/10 09:18:50;;;;;;;2.17;1.80;;;;;;;-142.70;100.00;60390.16;4874736;29;20057;-72
2021/06/10 09:21:43;;;;;;;1.75;1.65;;;;;;;-142.70;100.00;60390.16;4856345;29;20112;-72
2021/06/10 09:24:15;;;;;;;2.50;2.30;;;;;;;-142.70;100.00;60390.16;4874055;29;20097;-72
2021/06/10 09:26:42;;;;;;;2.42;1.92;;;;;;;-142.70;100.00;60390.16;4875386;29;20029;-73
2021/06/10 09:29:07;;;;;;;1.95;1.85;;;;;;;-142.70;100.00;60390.16;4859141;29;20036;-74
2021/06/10 09:31:33;;;;;;;2.40;2.20;;;;;;;-142.70;100.00;60390.16;4873042;29;20032;-72
2021/06/10 09:33:59;;;;;;;2.05;1.95;;;;;;;-142.70;100.00;60390.16;4874555;29;20033;-75
2021/06/10 09:36:25;;;;;;;1.80;1.70;;;;;;;-142.70;100.00;60390.16;4874107;29;20547;-73
2021/06/10 09:39:10;;;;;;;1.60;1.50;;;;;;;-142.70;100.00;60390.16;4856245;29;20054;-75
2021/06/10 09:42:09;;;;;;;1.50;1.40;;;;;;;-142.70;100.00;60390.16;4858610;29;20033;-75
2021/06/10 09:44:38;;;;;;;1.58;1.48;;;;;;;-142.70;100.00;60390.16;4839002;29;20033;-74
2021/06/10 09:47:04;;;;;;;1.88;1.60;;;;;;;-142.70;100.00;60390.16;4874669;29;20025;-77
2021/06/10 09:49:29;;;;;;;1.98;1.88;;;;;;;-142.70;100.00;60390.16;4872669;29;20040;-76
2021/06/10 09:51:55;;;;;;;1.88;1.77;;;;;;;-142.70;100.00;60390.16;4874676;29;20088;-76
2021/06/10 09:54:43;;;;;;;1.70;1.60;;;;;;;-142.70;100.00;60390.16;4873353;29;20470;-75
2021/06/10 09:57:09;;;;;;;1.50;1.40;;;;;;;-142.70;100.00;60390.16;4872745;29;20033;-76
2021/06/10 09:59:46;;;;;;;1.65;1.55;;;;;;;-142.70;100.00;60390.16;4875353;29;20033;-73
2021/06/10 10:02:26;;;;;;;1.65;1.55;;;;;;;-142.70;100.00;60390.16;4857205;29;20049;-74
2021/06/10 10:05:03;;;;;;;3.22;1.50;;;;;;;-142.70;100.00;60390.16;4858427;29;20029;-75
2021/06/10 10:07:30;;;;;;;1.92;1.73;;;;;;;-142.70;100.00;60390.16;4874562;29;20056;-75
2021/06/10 10:09:57;;;;;;;1.27;1.17;;;;;;;-142.70;100.00;60390.16;4873310;29;20033;-74
2021/06/10 10:12:24;;;;;;;1.60;1.50;;;;;;;-142.70;100.00;60390.16;4874442;29;20041;-74
2021/06/10 10:14:56;;;;;;;1.70;1.60;;;;;;;-142.70;100.00;60390.16;4864605;29;20081;-74
2021/06/10 10:17:25;;;;;;;1.70;1.60;;;;;;;-142.70;100.00;60390.16;4874030;29;20079;-70
2021/06/10 10:19:50;;;;;;;1.35;1.25;;;;;;;-142.70;100.00;60390.16;4872146;29;20510;-70
2021/06/10 10:22:23;;;;;;;1.67;1.58;;;;;;;-142.70;100.00;60390.16;4873889;29;20085;-75
2021/06/10 10:24:49;;;;;;;1.40;1.30;;;;;;;-142.70;100.00;60390.16;4850803;29;20452;-74
2021/06/10 10:27:15;;;;;;;2.10;1.92;;;;;;;-142.70;100.00;60390.16;4864768;29;20029;-73
2021/06/10 10:29:43;;;;;;;1.73;1.63;;;;;;;-142.70;100.00;60390.16;4873968;29;20029;-68
2021/06/10 10:32:10;;;;;;;1.77;1.48;;;;;;;-142.70;100.00;60390.16;4872161;29;20455;-73
2021/06/10 10:34:38;;;;;;;1.80;1.70;;;;;;;-142.70;100.00;60390.16;4854944;29;20026;-71
2021/06/10 10:37:20;;;;;;;3.85;2.47;;;;;;;-142.70;100.00;60390.16;4862937;29;20064;-69
2021/06/10 10:39:46;;;;;;;3.00;1.58;;;;;;;-142.70;100.00;60390.16;4854972;29;20543;-73
2021/06/10 10:42:26;;;;;;;2.10;1.90;;;;;;;-142.70;100.00;60390.16;4872752;29;20232;-71
2021/06/10 10:45:09;;;;;;;2.00;1.60;;;;;;;-142.70;100.00;60390.16;4852965;29;20026;-73
2021/06/10 10:47:48;;;;;;;1.58;1.48;;;;;;;-142.70;100.00;60390.16;4859885;29;20036;-70
2021/06/10 10:50:19;;;;;;;1.27;1.20;;;;;;;-142.70;100.00;60390.16;4872994;29;20077;-69
2021/06/10 10:52:55;;;;;;;1.30;1.20;;;;;;;-142.70;100.00;60390.16;4874624;29;20029;-72
2021/06/10 10:55:27;;;;;;;1.65;1.55;;;;;;;-142.70;100.00;60390.16;4842696;29;20032;-72
2021/06/10 10:57:59;;;;;;;2.00;1.80;;;;;;;-142.70;100.00;60390.16;4841730;29;20514;-70
2021/06/10 11:00:48;;;;;;;1.58;1.40;;;;;;;-142.70;100.00;60390.16;4873286;29;20033;-70
2021/06/10 11:03:14;;;;;;;2.60;2.38;;;;;;;-142.70;100.00;60390.16;4882747;29;20036;-70
2021/06/10 11:05:42;;;;;;;1.50;1.40;;;;;;;-142.70;100.00;60390.16;4891591;29;20052;-73
2021/06/10 11:08:08;;;;;;;1.52;1.42;;;;;;;-142.70;100.00;60390.16;4892623;29;20039;-77
2021/06/10 11:10:36;;;;;;;1.60;1.50;;;;;;;-142.70;100.00;60390.16;4890699;29;20054;-72
2021/06/10 11:13:21;;;;;;;1.70;1.60;;;;;;;-142.70;100.00;60390.16;4890258;29;20043;-73
2021/06/10 11:15:51;;;;;;;1.63;1.52;;;;;;;-142.70;100.00;60390.16;4871129;29;20033;-77
2021/06/10 11:18:52;;;;;;;1.50;1.40;;;;;;;-142.70;100.00;60390.16;4860272;29;20032;-73
2021/06/10 11:21:40;;;;;;;1.95;1.67;;;;;;;-142.70;100.00;60390.16;4836118;29;20041;-74
2021/06/10 11:24:15;;;;;;;1.40;1.30;;;;;;;-142.70;100.00;60390.16;4877806;29;20052;-70
2021/06/10 11:27:13;;;;;;;1.48;1.30;;;;;;;-142.70;100.00;60390.16;4893121;29;20024;-69
2021/06/10 11:30:07;;;;;;;1.85;1.75;;;;;;;-142.70;100.00;60390.16;4852410;29;20036;-68
2021/06/10 11:32:34;;;;;;;2.22;1.70;;;;;;;-142.70;100.00;60390.16;4877222;29;20088;-70
2021/06/10 11:35:00;;;;;;;2.92;1.38;;;;;;;-142.70;100.00;60390.16;4875542;29;20035;-71
2021/06/10 11:37:27;;;;;;;1.00;0.90;;;;;;;-142.70;100.00;60390.16;4889976;29;20036;-71
2021/06/10 11:39:53;;;;;;;1.35;1.23;;;;;;;-142.70;100.00;60390.16;4891537;29;20042;-73
2021/06/10 11:42:22;;;;;;;1.70;1.35;;;;;;;-142.70;100.00;60390.16;4878154;29;20029;-69
2021/06/10 11:44:48;;;;;;;5.07;1.40;;;;;;;-142.70;100.00;60390.16;4876791;29;20032;-73
2021/06/10 11:47:23;;;;;;;1.90;1.30;;;;;;;-142.70;100.00;60390.16;4871966;29;20037;-70
2021/06/10 11:49:49;;;;;;;1.75;1.38;;;;;;;-142.70;100.00;60390.16;4890600;29;20047;-73
2021/06/10 11:52:14;;;;;;;1.90;1.80;;;;;;;-142.70;100.00;60390.16;4887850;29;20583;-69
2021/06/10 11:54:59;;;;;;;1.50;1.40;;;;;;;-142.70;100.00;60390.16;4889364;29;20092;-69
2021/06/10 11:57:28;;;;;;;1.05;0.95;;;;;;;-142.70;100.00;60390.16;4852750;29;20021;-74
2021/06/10 11:59:54;;;;;;;3.33;1.10;;;;;;;-142.70;100.00;60390.16;4855243;29;20105;-74
2021/06/10 12:02:24;;;;;;;0.98;0.77;;;;;;;-142.70;100.00;60390.16;4896808;29;20048;-73
2021/06/10 12:04:52;;;;;;;0.80;0.80;;;;;;;-142.70;100.00;60390.16;4881163;29;20494;-72
2021/06/10 12:07:20;;;;;;;0.90;0.80;;;;;;;-142.70;100.00;60390.16;4879944;29;20056;-70
2021/06/10 12:09:55;;;;;;;1.85;0.90;;;;;;;-142.70;100.00;60390.16;4890841;29;20033;-69
2021/06/10 12:12:33;;;;;;;0.93;0.82;;;;;;;-142.70;100.00;60390.16;4888769;29;20064;-73
2021/06/10 12:14:59;;;;;;;0.77;0.70;;;;;;;-142.70;100.00;60390.16;4874275;29;20059;-73
2021/06/10 12:17:24;;;;;;;0.50;0.50;;;;;;;-142.70;100.00;60390.16;4865222;29;20056;-72
2021/06/10 12:20:38;;;;;;;0.90;0.82;;;;;;;-142.70;100.00;60390.16;4871471;29;20044;-73
2021/06/10 12:23:13;;;;;;;0.98;0.80;;;;;;;-142.70;100.00;60390.16;4863766;29;20125;-71
2021/06/10 12:25:39;;;;;;;1.17;0.98;;;;;;;-142.70;100.00;60390.16;4889593;29;20569;-73
2021/06/10 12:28:04;;;;;;;0.68;0.68;;;;;;;-142.70;100.00;60390.16;4873682;29;20060;-73
2021/06/10 12:30:33;;;;;;;1.13;0.77;;;;;;;-142.70;100.00;60390.16;4876374;29;20171;-73
2021/06/10 12:33:11;;;;;;;0.50;0.50;;;;;;;-142.70;100.00;60390.16;4889892;29;20228;-75
2021/06/10 12:35:37;;;;;;;1.08;0.80;;;;;;;-142.70;100.00;60390.16;4890393;29;20033;-73
2021/06/10 12:38:02;;;;;;;0.85;0.77;;;;;;;-142.70;100.00;60390.16;4855581;29;20020;-75
2021/06/10 12:40:41;;;;;;;0.80;0.70;;;;;;;-142.70;100.00;60390.16;4890232;29;20028;-72
2021/06/10 12:43:20;;;;;;;1.10;1.00;;;;;;;-142.70;100.00;60390.16;4873494;29;20031;-74
2021/06/10 12:45:45;;;;;;;0.70;0.70;;;;;;;-142.70;100.00;60390.16;4886992;29;20044;-75
2021/06/10 12:48:30;;;;;;;0.50;0.50;;;;;;;-142.70;100.00;60390.16;4865372;29;20500;-72
2021/06/10 12:51:18;;;;;;;0.70;0.70;;;;;;;-142.70;100.00;60390.16;4892774;29;20063;-72
2021/06/10 12:54:10;;;;;;;0.70;0.60;;;;;;;-142.70;100.00;60390.16;4889496;29;20032;-71
2021/06/10 12:56:52;;;;;;;0.80;0.75;;;;;;;-142.70;100.00;60390.16;4872664;29;20172;-73
2021/06/10 12:59:25;;;;;;;0.57;0.57;;;;;;;-142.70;100.00;60390.16;4881506;29;20037;-72
2021/06/10 13:02:03;;;;;;;0.52;0.52;;;;;;;-142.70;100.00;60390.16;4886542;29;20061;-74
2021/06/10 13:04:35;;;;;;;0.73;0.73;;;;;;;-142.70;100.00;60390.16;4870134;29;20116;-72
2021/06/10 13:07:01;;;;;;;1.52;0.98;;;;;;;-142.70;100.00;60390.16;4879801;29;20037;-73
2021/06/10 13:09:26;;;;;;;0.50;0.50;;;;;;;-142.70;100.00;60390.16;4871105;29;20060;-72
2021/06/10 13:12:11;;;;;;;0.75;0.65;;;;;;;-142.70;100.00;60390.16;4854140;29;20033;-75
2021/06/10 13:14:36;;;;;;;0.60;0.60;;;;;;;-142.70;100.00;60390.16;4872761;29;20036;-69
2021/06/10 13:17:02;;;;;;;0.70;0.70;;;;;;;-142.70;100.00;60390.16;4870375;29;20041;-72
2021/06/10 13:19:27;;;;;;;1.08;0.75;;;;;;;-142.70;100.00;60390.16;4872353;29;20041;-69
2021/06/10 13:22:25;;;;;;;0.63;0.60;;;;;;;-142.70;100.00;60390.16;4871190;29;20033;-72
2021/06/10 13:24:50;;;;;;;0.90;0.80;;;;;;;-142.70;100.00;60390.16;4859418;29;20053;-72
2021/06/10 13:27:21;;;;;;;0.68;0.68;;;;;;;-142.70;100.00;60390.16;4852218;29;20048;-74
2021/06/10 13:29:50;;;;;;;0.65;0.65;;;;;;;-142.70;100.00;60390.16;4881092;29;20036;-73
2021/06/10 13:32:29;;;;;;;0.70;0.70;;;;;;;-142.70;100.00;60390.16;4855887;29;20059;-72
2021/06/10 13:35:19;;;;;;;1.33;1.02;;;;;;;-142.70;100.00;60390.16;4855605;29;20048;-70
2021/06/10 13:37:42;;;;;;;0.88;0.88;;;;;;;-142.70;100.00;60390.16;4873544;29;20541;-74
2021/06/10 13:40:08;;;;;;;0.73;0.70;;;;;;;-142.70;100.00;60390.16;4872190;29;20034;-69
2021/06/10 13:42:34;;;;;;;0.98;0.90;;;;;;;-142.70;100.00;60390.16;4849734;29;20116;-74
2021/06/10 13:44:59;;;;;;;0.95;0.80;;;;;;;-142.70;100.00;60390.16;4861687;29;20044;-73
2021/06/10 13:47:25;;;;;;;0.70;0.70;;;;;;;-142.70;100.00;60390.16;4857945;29;20029;-75
2021/06/10 13:49:50;;;;;;;0.77;0.77;;;;;;;-142.70;100.00;60390.16;4860656;29;20033;-72
2021/06/10 13:52:16;;;;;;;4.97;1.25;;;;;;;-142.70;100.00;60390.16;4846358;29;20111;-74
2021/06/10 13:54:41;;;;;;;0.88;0.88;;;;;;;-142.70;100.00;60390.16;4854297;29;20516;-71
2021/06/10 13:57:07;;;;;;;1.05;0.95;;;;;;;-142.70;100.00;60390.16;4875859;29;20037;-73
2021/06/10 13:59:33;;;;;;;1.42;1.33;;;;;;;-142.70;100.00;60390.16;4851468;29;20167;-71
2021/06/10 14:01:58;;;;;;;1.83;1.55;;;;;;;-142.70;100.00;60390.16;4858731;29;20052;-71
2021/06/10 14:04:24;;;;;;;1.63;0.90;;;;;;;-142.70;100.00;60390.16;4871125;29;20025;-73
2021/06/10 14:06:49;;;;;;;1.15;1.10;;;;;;;-142.70;100.00;60390.16;4858489;29;20025;-69
2021/06/10 14:09:14;;;;;;;1.40;1.10;;;;;;;-142.70;100.00;60390.16;4871485;29;20755;-70
2021/06/10 14:11:40;;;;;;;3.95;1.90;;;;;;;-142.70;100.00;60390.16;4876804;29;20037;-69
2021/06/10 14:14:06;;;;;;;2.05;1.45;;;;;;;-142.70;100.00;60390.16;4874368;29;20435;-72
2021/06/10 14:16:31;;;;;;;1.40;1.30;;;;;;;-142.70;100.00;60390.16;4871407;29;20046;-71
2021/06/10 14:18:57;;;;;;;1.48;1.38;;;;;;;-142.70;100.00;60390.16;4866465;29;20037;-70
2021/06/10 14:21:24;;;;;;;2.13;1.50;;;;;;;-142.70;100.00;60390.16;4866421;29;20482;-73
2021/06/10 14:23:50;;;;;;;1.63;1.52;;;;;;;-142.70;100.00;60390.16;4873475;29;20033;-72
2021/06/10 14:26:16;;;;;;;5.70;5.18;;;;;;;-142.70;100.00;60390.16;4856693;29;20099;-72
2021/06/10 14:28:42;;;;;;;4.40;3.58;;;;;;;-142.70;100.00;60390.16;4842646;29;20036;-74
2021/06/10 14:33:55;;;;;;;1.70;1.60;;;;;;;-142.70;100.00;60390.16;4873433;29;20044;-72
2021/06/10 14:36:20;;;;;;;1.70;1.60;;;;;;;-142.70;100.00;60390.16;4874020;29;20029;-71
2021/06/10 14:38:46;;;;;;;1.50;1.40;;;;;;;-142.70;100.00;60390.16;4868083;29;20436;-69
2021/06/10 14:41:11;;;;;;;1.73;1.63;;;;;;;-142.70;100.00;60390.16;4873545;29;20044;-72
2021/06/10 14:43:37;;;;;;;1.70;1.50;;;;;;;-142.70;100.00;60390.16;4876672;29;20037;-74
2021/06/10 14:46:02;;;;;;;2.38;2.17;;;;;;;-142.70;100.00;60390.16;4874857;29;20036;-74
2021/06/10 14:48:27;;;;;;;2.05;1.90;;;;;;;-142.70;100.00;60390.16;4856515;29;20487;-70
2021/06/10 14:50:53;;;;;;;1.95;1.77;;;;;;;-142.70;100.00;60390.16;4873813;29;20025;-71
2021/06/10 14:53:19;;;;;;;2.83;2.22;;;;;;;-142.70;100.00;60390.16;4857839;29;20582;-71
2021/06/10 14:55:44;;;;;;;1.63;1.52;;;;;;;-142.70;100.00;60390.16;4871568;29;20463;-71
2021/06/10 14:58:10;;;;;;;1.70;1.60;;;;;;;-142.70;100.00;60390.16;4873844;29;20100;-73
2021/06/10 15:00:36;;;;;;;3.20;1.60;;;;;;;-142.70;100.00;60390.16;4870466;29;20025;-69
2021/06/10 15:03:02;;;;;;;1.90;1.80;;;;;;;-142.70;100.00;60390.16;4863570;29;20053;-71
2021/06/10 15:05:28;;;;;;;2.30;2.10;;;;;;;-142.70;100.00;60390.16;4871900;29;20053;-71
2021/06/10 15:07:53;;;;;;;2.20;2.00;;;;;;;-142.70;100.00;60390.16;4873594;29;20100;-70
2021/06/10 15:10:18;;;;;;;2.28;1.50;;;;;;;-142.70;100.00;60390.16;4873903;29;20041;-70
2021/06/10 15:12:44;;;;;;;2.00;1.48;;;;;;;-142.70;100.00;60390.16;4853108;29;20440;-71
2021/06/10 15:15:11;;;;;;;2.60;2.40;;;;;;;-142.70;100.00;60390.16;4864749;29;20120;-70
2021/06/10 15:17:37;;;;;;;2.70;2.30;;;;;;;-142.70;100.00;60390.16;4871070;29;20527;-70
2021/06/10 15:20:04;;;;;;;2.35;2.15;;;;;;;-142.70;100.00;60390.16;4867949;29;20088;-72
2021/06/10 15:22:29;;;;;;;2.55;2.05;;;;;;;-142.70;100.00;60390.16;4847935;29;20059;-71
2021/06/10 15:24:55;;;;;;;2.35;2.15;;;;;;;-142.70;100.00;60390.16;4864266;29;20681;-71
2021/06/10 15:27:20;;;;;;;1.70;1.60;;;;;;;-142.70;100.00;60390.16;4879675;29;20043;-70
2021/06/10 15:29:46;;;;;;;2.20;2.00;;;;;;;-142.70;100.00;60390.16;4880110;29;20039;-70
2021/06/10 15:32:11;;;;;;;2.25;2.05;;;;;;;-142.70;100.00;60390.16;4864874;29;20044;-70
2021/06/10 15:34:38;;;;;;;2.72;2.20;;;;;;;-142.70;100.00;60390.16;4861455;29;20028;-71
2021/06/10 15:37:05;;;;;;;2.78;2.28;;;;;;;-142.70;100.00;60390.16;4866163;29;20051;-70
2021/06/10 15:39:37;;;;;;;2.50;2.28;;;;;;;-142.70;100.00;60390.16;4871876;29;20049;-73
2021/06/10 15:42:04;;;;;;;4.32;2.00;;;;;;;-142.70;100.00;60390.16;4874270;29;20047;-73
2021/06/10 15:44:29;;;;;;;2.30;2.10;;;;;;;-142.70;100.00;60390.16;4862585;29;20055;-73
2021/06/10 15:46:54;;;;;;;2.55;2.28;;;;;;;-142.70;100.00;60390.16;4880111;29;20025;-72
2021/06/10 15:49:20;;;;;;;3.10;1.92;;;;;;;-142.70;100.00;60390.16;4877714;29;20035;-69
2021/06/10 15:51:45;;;;;;;3.72;2.10;;;;;;;-142.70;100.00;60390.16;4872410;29;20535;-75
2021/06/10 15:54:13;;;;;;;2.72;2.17;;;;;;;-142.70;100.00;60390.16;4876263;29;20037;-70
2021/06/10 15:56:39;;;;;;;2.30;2.13;;;;;;;-142.70;100.00;60390.16;4878039;29;20039;-73
2021/06/10 15:59:05;;;;;;;2.50;2.30;;;;;;;-142.70;100.00;60390.16;4861559;29;20874;-72
2021/06/10 16:01:30;;;;;;;5.05;2.50;;;;;;;-142.70;100.00;60390.16;4878666;29;20041;-72
2021/06/10 16:03:56;;;;;;;2.53;2.33;;;;;;;-142.70;100.00;60390.16;4875982;29;20043;-71
2021/06/10 16:06:21;;;;;;;2.28;2.08;;;;;;;-142.70;100.00;60390.16;4878920;29;20115;-72
2021/06/10 16:08:47;;;;;;;1.83;1.70;;;;;;;-142.70;100.00;60390.16;4878429;29;20021;-72
2021/06/10 16:11:12;;;;;;;1.77;1.67;;;;;;;-142.70;100.00;60390.16;4876416;29;20521;-71
2021/06/10 16:13:38;;;;;;;2.20;1.63;;;;;;;-142.70;100.00;60390.16;4841742;29;20041;-72
2021/06/10 16:16:05;;;;;;;2.95;2.00;;;;;;;-142.70;100.00;60390.16;4857383;29;20018;-71
2021/06/10 16:18:30;;;;;;;2.75;2.55;;;;;;;-142.70;100.00;60390.16;4877296;29;20087;-73
2021/06/10 16:20:56;;;;;;;5.60;2.25;;;;;;;-142.70;100.00;60390.16;4879045;29;20478;-71